createdAt,value
2019-05-09T14:23:51.339Z,68.45
2019-05-09T14:26:14.176Z,68.01
2019-05-09T14:28:49.023Z,67.88
2019-05-09T14:31:21.217Z,67.61
2019-05-09T14:33:54.037Z,67.19
2019-05-09T14:36:27.767Z,66.74
2019-05-09T14:39:09.238Z,66.39
2019-05-09T14:41:41.952Z,66.33
2019-05-09T14:44:18.209Z,66.48
2019-05-09T14:46:50.882Z,66.35
2019-05-09T14:49:23.407Z,66.23
2019-05-09T14:52:02.049Z,66.17
2019-05-09T14:54:34.813Z,65.78
2019-05-09T14:57:09.814Z,65.71
2019-05-09T14:59:44.925Z,65.73
2019-05-09T15:02:18.210Z,65.62
2019-05-09T15:04:50.851Z,65.88
2019-05-09T15:07:23.912Z,65.83
2019-05-09T15:09:59.724Z,65.94
2019-05-09T15:12:31.408Z,65.75
2019-05-09T15:15:07.958Z,65.95
2019-05-09T15:17:40.613Z,65.81
2019-05-09T15:20:13.462Z,65.76
2019-05-09T15:22:52.805Z,65.89
2019-05-09T15:25:31.997Z,65.93
2019-05-09T15:28:04.455Z,65.83
2019-05-09T15:30:38.577Z,65.71
2019-05-09T15:33:10.708Z,65.49
2019-05-09T15:35:43.208Z,66.02
2019-05-09T15:38:18.281Z,66.03
2019-05-09T15:40:51.831Z,66.02
2019-05-09T15:43:38.241Z,66.03
2019-05-09T15:46:12.402Z,66.10
2019-05-09T15:49:03.212Z,66.26
2019-05-09T15:51:38.604Z,66.48
2019-05-09T15:54:11.567Z,66.40
2019-05-09T15:56:53.425Z,66.53
2019-05-09T15:59:38.976Z,66.30
2019-05-09T16:02:18.941Z,66.30
2019-05-09T16:04:58.676Z,66.88
2019-05-09T16:07:28.595Z,67.27
2019-05-09T16:10:08.721Z,67.14
2019-05-09T16:12:41.787Z,67.31
2019-05-09T16:15:14.511Z,66.99
2019-05-09T16:17:48.466Z,67.24
2019-05-09T16:20:36.855Z,67.26
2019-05-09T16:23:08.406Z,67.41
2019-05-09T16:25:54.456Z,67.61
2019-05-09T16:28:27.334Z,67.51
2019-05-09T16:31:01.054Z,67.68
2019-05-09T16:33:41.125Z,67.70
2019-05-09T16:36:13.233Z,68.02
2019-05-09T16:38:48.793Z,68.04
2019-05-09T16:41:20.795Z,67.95
2019-05-09T16:43:54.480Z,68.30
2019-05-09T16:46:30.791Z,68.15
2019-05-09T16:49:05.795Z,67.81
2019-05-09T16:51:45.122Z,68.13
2019-05-09T16:54:22.702Z,67.91
2019-05-09T16:57:01.656Z,67.88
2019-05-09T16:59:35.625Z,68.36
2019-05-09T17:02:18.963Z,68.07
2019-05-09T17:04:43.169Z,68.16
2019-05-09T17:07:18.074Z,68.02
2019-05-09T17:09:58.158Z,68.04
2019-05-09T17:12:38.017Z,68.34
2019-05-09T17:15:17.962Z,68.05
2019-05-09T17:17:54.353Z,67.81
2019-05-09T17:20:35.316Z,68.41
2019-05-09T17:23:13.707Z,68.41
2019-05-09T17:25:42.057Z,67.86
2019-05-09T17:28:17.751Z,68.49
2019-05-09T17:30:50.128Z,67.62
2019-05-09T17:33:28.702Z,67.42
2019-05-09T17:36:01.598Z,65.83
2019-05-09T17:38:34.268Z,67.28
2019-05-09T17:41:08.244Z,67.72
2019-05-09T17:43:42.025Z,67.69
2019-05-09T17:46:19.182Z,68.17
2019-05-09T17:48:52.206Z,66.48
2019-05-09T17:51:34.039Z,67.77
2019-05-09T17:54:03.214Z,67.23
2019-05-09T17:56:43.189Z,67.90
2019-05-09T17:59:18.151Z,67.57
2019-05-09T18:01:53.025Z,67.92
2019-05-09T18:04:28.490Z,66.64
2019-05-09T18:07:00.569Z,67.69
2019-05-09T18:09:33.448Z,68.24
2019-05-09T18:12:12.848Z,67.95
2019-05-09T18:14:47.636Z,67.83
2019-05-09T18:17:19.755Z,67.56
2019-05-09T18:19:53.453Z,65.35
2019-05-09T18:22:26.543Z,66.43
2019-05-09T18:24:59.508Z,66.75
2019-05-09T18:27:37.953Z,65.26
2019-05-09T18:30:11.962Z,66.25
2019-05-09T18:32:47.645Z,63.53
2019-05-09T18:35:22.034Z,63.67
2019-05-09T18:37:58.871Z,65.95
2019-05-09T18:40:33.009Z,62.84
2019-05-09T18:43:07.717Z,62.82
2019-05-09T18:45:40.249Z,65.57
2019-05-09T18:48:13.089Z,63.05
2019-05-09T18:50:45.874Z,64.67
2019-05-09T18:53:18.785Z,64.44
2019-05-09T18:55:51.448Z,60.85
2019-05-09T18:58:24.359Z,60.94
2019-05-09T19:00:57.557Z,60.72
2019-05-09T19:03:30.041Z,61.48
2019-05-09T19:06:09.944Z,61.38
2019-05-09T19:08:42.827Z,58.94
2019-05-09T19:11:19.623Z,62.44
2019-05-09T19:13:52.360Z,58.69
2019-05-09T19:16:27.672Z,60.74
2019-05-09T19:19:01.362Z,61.60
2019-05-09T19:21:36.144Z,60.99
2019-05-09T19:24:09.554Z,59.87
2019-05-09T19:26:42.388Z,58.93
2019-05-09T19:29:21.740Z,57.66
2019-05-09T19:32:01.878Z,60.55
2019-05-09T19:34:34.297Z,57.58
2019-05-09T19:37:07.243Z,60.18
2019-05-09T19:39:39.929Z,59.36
2019-05-09T19:42:15.665Z,56.97
2019-05-09T19:44:48.296Z,56.60
2019-05-09T19:47:21.299Z,56.42
2019-05-09T19:49:53.977Z,56.75
2019-05-09T19:52:37.719Z,56.41
2019-05-09T19:55:00.961Z,56.89
2019-05-09T19:57:33.923Z,57.80
2019-05-09T20:00:08.625Z,55.84
2019-05-09T20:02:47.839Z,57.37
2019-05-09T20:05:20.348Z,57.13
2019-05-09T20:07:59.080Z,56.68
2019-05-09T20:10:33.163Z,56.62
2019-05-09T20:13:08.105Z,56.28
2019-05-09T20:15:41.333Z,57.29
2019-05-09T20:18:14.128Z,55.99
2019-05-09T20:20:46.577Z,55.99
2019-05-09T20:23:27.875Z,55.94
2019-05-09T20:26:00.704Z,55.67
2019-05-09T20:28:52.066Z,55.67
2019-05-09T20:31:30.803Z,55.36
2019-05-09T20:34:04.316Z,56.03
2019-05-09T20:36:36.649Z,55.72
2019-05-09T20:39:09.702Z,55.70
2019-05-09T20:41:42.333Z,55.41
2019-05-09T20:44:14.673Z,55.83
2019-05-09T20:46:48.543Z,55.48
2019-05-09T20:49:22.085Z,55.72
2019-05-09T20:51:54.679Z,56.18
2019-05-09T20:54:28.210Z,55.74
2019-05-09T20:57:12.847Z,55.96
2019-05-09T20:59:46.775Z,55.85
2019-05-09T21:02:25.680Z,56.25
2019-05-09T21:04:59.290Z,55.92
2019-05-09T21:07:36.582Z,56.04
2019-05-09T21:10:09.769Z,56.60
2019-05-09T21:12:42.260Z,56.28
2019-05-09T21:15:15.541Z,56.47
2019-05-09T21:17:48.271Z,56.40
2019-05-09T21:20:21.694Z,56.32
2019-05-09T21:22:54.598Z,56.98
2019-05-09T21:25:32.782Z,56.63
2019-05-09T21:28:04.403Z,56.45
2019-05-09T21:30:40.695Z,56.63
2019-05-09T21:33:13.731Z,56.54
2019-05-09T21:35:46.196Z,56.47
2019-05-09T21:38:18.775Z,56.54
2019-05-09T21:40:52.077Z,56.56
2019-05-09T21:43:25.625Z,57.18
2019-05-09T21:45:58.038Z,56.49
2019-05-09T21:48:33.640Z,56.36
2019-05-09T21:51:05.931Z,56.59
2019-05-09T21:53:41.203Z,57.08
2019-05-09T21:56:13.098Z,57.08
2019-05-09T21:58:45.897Z,56.83
2019-05-09T22:01:20.569Z,56.99
2019-05-09T22:03:53.814Z,56.62
2019-05-09T22:06:26.865Z,56.41
2019-05-09T22:09:05.997Z,56.43
2019-05-09T22:11:40.247Z,56.69
2019-05-09T22:14:12.932Z,56.92
2019-05-09T22:16:45.204Z,57.07
2019-05-09T22:19:18.060Z,56.98
2019-05-09T22:21:51.538Z,57.02
2019-05-09T22:24:24.116Z,57.16
2019-05-09T22:26:56.870Z,57.27
2019-05-09T22:29:37.747Z,57.21
2019-05-09T22:32:10.219Z,56.88
2019-05-09T22:34:43.176Z,56.69
2019-05-09T22:37:15.376Z,57.01
2019-05-09T22:39:47.713Z,56.93
2019-05-09T22:42:20.983Z,58.13
